Time;durP1;ratioP1;P1;durP2;ratioP2;P2;SDS_P1;SDS_P2;PMS_P1;PMS_P2;Temp;Humidity;BMP_temperature;BMP_pressure;BME280_temperature;BME280_humidity;BME280_pressure;Samples;Min_cycle;Max_cycle;Signal;HPM_P1;HPM_P2
2021/12/14 00:01:59;;;;;;;;;;;;;;;5.76;51.12;96478.28;5008981;28;19974;-70
2021/12/14 00:04:28;;;;;;;;;;;;;;;5.67;51.26;96467.50;5005194;28;19990;-70
2021/12/14 00:06:53;;;;;;;;;;;;;;;5.83;50.83;96469.75;5005234;28;20261;-70
2021/12/14 00:09:32;;;;;;;;;;;;;;;5.78;50.56;96473.72;5010422;28;19975;-69
2021/12/14 00:12:20;;;;;;;;;;;;;;;5.42;51.57;96480.09;5011457;28;19985;-69
2021/12/14 00:17:13;;;;;;;;;;;;;;;5.09;52.24;96471.25;5004135;28;19986;-70
2021/12/14 00:19:38;;;;;;;;;;;;;;;5.33;51.79;96471.09;5007933;28;20001;-69
2021/12/14 00:22:17;;;;;;;;;;;;;;;5.51;51.46;96477.66;5013300;28;20004;-69
2021/12/14 00:24:43;;;;;;;;;;;;;;;5.49;52.12;96477.78;5015588;28;20382;-69
2021/12/14 00:27:08;;;;;;;;;;;;;;;3.98;56.25;96479.66;5021904;28;20291;-69
2021/12/14 00:29:35;;;;;;;;;;;;;;;4.77;54.53;96477.25;5019477;28;20438;-66
2021/12/14 00:32:01;;;;;;;;;;;;;;;3.06;60.14;96493.31;5022154;28;19993;-68
2021/12/14 00:34:37;;;;;;;;;;;;;;;3.08;59.49;96486.97;5022840;28;19974;-69
2021/12/14 00:37:03;;;;;;;;;;;;;;;4.04;56.93;96478.34;5021937;28;20402;-68
2021/12/14 00:39:28;;;;;;;;;;;;;;;4.29;56.02;96485.22;5015851;28;19993;-68
2021/12/14 00:41:53;;;;;;;;;;;;;;;5.08;53.35;96481.00;5005155;28;19970;-68
2021/12/14 00:44:21;;;;;;;;;;;;;;;5.03;53.75;96490.22;5007225;28;19989;-68
2021/12/14 00:46:46;;;;;;;;;;;;;;;4.94;53.28;96492.59;5011902;28;20056;-69
2021/12/14 00:49:12;;;;;;;;;;;;;;;4.31;55.12;96488.59;5008745;28;20100;-69
2021/12/14 00:51:37;;;;;;;;;;;;;;;4.48;54.93;96488.25;5007309;28;20474;-71
2021/12/14 00:54:04;;;;;;;;;;;;;;;5.19;52.66;96482.78;5013032;28;19973;-68
2021/12/14 00:56:29;;;;;;;;;;;;;;;5.12;52.47;96486.88;5003191;28;20489;-69
2021/12/14 00:58:54;;;;;;;;;;;;;;;4.48;55.07;96485.63;5002889;28;19993;-69
2021/12/14 01:01:24;;;;;;;;;;;;;;;4.54;54.67;96487.78;5005055;28;19968;-69
2021/12/14 01:04:00;;;;;;;;;;;;;;;3.09;59.23;96501.81;5006277;28;19989;-69
2021/12/14 01:06:27;;;;;;;;;;;;;;;3.39;57.93;96492.66;5004653;28;19996;-69
2021/12/14 01:08:52;;;;;;;;;;;;;;;4.31;55.89;96495.66;5007344;28;20039;-69
2021/12/14 01:11:21;;;;;;;;;;;;;;;4.65;54.31;96490.44;5006350;28;20351;-69
2021/12/14 01:13:54;;;;;;;;;;;;;;;4.78;54.60;96490.34;5010625;28;20474;-69
2021/12/14 01:16:32;;;;;;;;;;;;;;;4.66;54.59;96493.94;5002456;28;20451;-69
2021/12/14 01:19:12;;;;;;;;;;;;;;;4.19;55.86;96492.19;5002607;28;20084;-69
2021/12/14 01:24:07;;;;;;;;;;;;;;;4.12;56.09;96494.41;5009841;28;20052;-69
2021/12/14 01:26:34;;;;;;;;;;;;;;;4.51;54.28;96490.66;5006402;28;19998;-70
2021/12/14 01:28:59;;;;;;;;;;;;;;;4.50;54.38;96497.75;5002921;28;20335;-69
2021/12/14 01:31:32;;;;;;;;;;;;;;;4.83;53.77;96498.72;5003895;28;20063;-69
2021/12/14 01:33:59;;;;;;;;;;;;;;;4.68;54.06;96492.84;5016544;28;20048;-69
2021/12/14 01:36:39;;;;;;;;;;;;;;;4.24;54.73;96500.56;5010433;28;20442;-70
2021/12/14 01:41:46;;;;;;;;;;;;;;;4.42;54.30;96489.59;5009566;28;20309;-70
2021/12/14 01:44:11;;;;;;;;;;;;;;;4.87;53.24;96495.84;5006765;28;19982;-69
2021/12/14 01:46:39;;;;;;;;;;;;;;;4.92;53.12;96489.25;5012060;28;19970;-69
2021/12/14 01:49:07;;;;;;;;;;;;;;;5.06;52.74;96488.19;5015283;28;20364;-69
2021/12/14 01:51:32;;;;;;;;;;;;;;;4.95;53.55;96483.75;5010364;28;19986;-69
2021/12/14 01:53:57;;;;;;;;;;;;;;;5.22;52.40;96489.59;5010414;28;20417;-70
2021/12/14 01:56:23;;;;;;;;;;;;;;;5.29;52.53;96476.75;5009463;28;19993;-70
2021/12/14 01:58:53;;;;;;;;;;;;;;;5.05;53.21;96464.53;5009160;28;19986;-69
2021/12/14 02:01:20;;;;;;;;;;;;;;;4.93;53.52;96459.25;5008965;28;20043;-69
2021/12/14 02:03:49;;;;;;;;;;;;;;;5.17;52.49;96460.94;5006217;28;19989;-69
2021/12/14 02:06:15;;;;;;;;;;;;;;;5.42;52.17;96456.31;5015620;28;19969;-69
2021/12/14 02:08:40;;;;;;;;;;;;;;;5.26;52.07;96462.00;5015386;28;20417;-69
2021/12/14 02:11:06;;;;;;;;;;;;;;;5.12;52.63;96455.19;5013551;28;19977;-70
2021/12/14 02:13:36;;;;;;;;;;;;;;;5.13;52.66;96451.56;5022192;28;19977;-70
2021/12/14 02:16:01;;;;;;;;;;;;;;;4.75;53.98;96452.78;5010815;28;20578;-69
2021/12/14 02:18:27;;;;;;;;;;;;;;;5.28;52.39;96451.31;5014840;28;20068;-69
2021/12/14 02:20:53;;;;;;;;;;;;;;;4.71;54.51;96455.69;5024401;28;20020;-70
2021/12/14 02:23:20;;;;;;;;;;;;;;;5.02;54.05;96448.91;5014822;28;20063;-69
2021/12/14 02:25:45;;;;;;;;;;;;;;;5.33;52.44;96444.69;5024595;28;19998;-69
2021/12/14 02:28:17;;;;;;;;;;;;;;;5.16;52.88;96445.22;5021134;28;20001;-70
2021/12/14 02:30:43;;;;;;;;;;;;;;;5.14;52.84;96437.41;5015256;28;20069;-70
2021/12/14 02:33:09;;;;;;;;;;;;;;;4.22;55.82;96439.22;5024333;28;20353;-69
2021/12/14 02:35:35;;;;;;;;;;;;;;;4.45;54.41;96442.72;5022629;28;19998;-70
2021/12/14 02:38:01;;;;;;;;;;;;;;;5.01;53.65;96449.91;5023269;28;19977;-70
2021/12/14 02:43:11;;;;;;;;;;;;;;;4.93;53.63;96456.63;5023953;28;20000;-70
2021/12/14 02:45:36;;;;;;;;;;;;;;;4.91;53.60;96453.28;5024365;28;19974;-69
2021/12/14 02:48:04;;;;;;;;;;;;;;;4.85;53.73;96448.47;5022395;28;19998;-69
2021/12/14 02:50:29;;;;;;;;;;;;;;;4.81;54.18;96447.03;5022074;28;19974;-69
2021/12/14 02:52:54;;;;;;;;;;;;;;;4.38;55.52;96438.88;5037538;28;20459;-69
2021/12/14 02:55:20;;;;;;;;;;;;;;;4.15;56.54;96430.94;5021771;28;20407;-69
2021/12/14 02:57:47;;;;;;;;;;;;;;;4.23;55.89;96432.16;5022301;28;19978;-69
2021/12/14 03:00:14;;;;;;;;;;;;;;;4.62;54.85;96424.72;5018238;28;20569;-69
2021/12/14 03:02:39;;;;;;;;;;;;;;;4.65;54.35;96442.97;5020968;28;19965;-69
2021/12/14 03:05:12;;;;;;;;;;;;;;;4.38;55.49;96435.38;5019041;28;20433;-69
2021/12/14 03:07:40;;;;;;;;;;;;;;;4.35;55.29;96430.38;5033962;28;20481;-69
2021/12/14 03:10:19;;;;;;;;;;;;;;;4.80;53.79;96435.63;5018855;28;19977;-69
2021/12/14 03:12:49;;;;;;;;;;;;;;;4.69;54.26;96417.16;5006872;28;20016;-69
2021/12/14 03:15:20;;;;;;;;;;;;;;;4.39;55.09;96422.09;5019049;28;20457;-69
2021/12/14 03:17:47;;;;;;;;;;;;;;;3.57;58.31;96413.28;5014127;28;19985;-69
2021/12/14 03:20:14;;;;;;;;;;;;;;;4.12;56.18;96409.25;5025519;28;20006;-69
2021/12/14 03:22:41;;;;;;;;;;;;;;;2.08;61.61;96419.38;5020755;28;19977;-69
2021/12/14 03:25:07;;;;;;;;;;;;;;;2.48;61.57;96399.97;5012683;28;19997;-69
2021/12/14 03:27:33;;;;;;;;;;;;;;;3.62;58.70;96400.66;5012152;28;20132;-69
2021/12/14 03:29:58;;;;;;;;;;;;;;;4.05;56.51;96416.81;5016151;28;20485;-69
2021/12/14 03:32:23;;;;;;;;;;;;;;;3.86;58.33;96401.53;5022033;28;20067;-69
2021/12/14 03:34:49;;;;;;;;;;;;;;;4.09;56.03;96409.50;5021826;28;20346;-69
2021/12/14 03:37:23;;;;;;;;;;;;;;;3.01;60.69;96398.91;5018678;28;20642;-69
2021/12/14 03:39:50;;;;;;;;;;;;;;;2.82;61.13;96391.50;5020943;28;20008;-69
2021/12/14 03:42:21;;;;;;;;;;;;;;;3.79;58.20;96369.56;5018775;28;19997;-69
2021/12/14 03:44:47;;;;;;;;;;;;;;;2.46;62.44;96388.75;5012723;28;20012;-69
2021/12/14 03:47:14;;;;;;;;;;;;;;;4.04;57.55;96363.25;5018383;28;19994;-66
2021/12/14 03:49:44;;;;;;;;;;;;;;;4.16;56.46;96369.38;5022499;28;20120;-67
2021/12/14 03:52:10;;;;;;;;;;;;;;;4.32;56.17;96378.72;5022698;28;20000;-67
2021/12/14 03:54:35;;;;;;;;;;;;;;;3.39;57.61;96379.47;5023410;28;20004;-67
2021/12/14 03:57:00;;;;;;;;;;;;;;;3.78;57.79;96360.81;5019744;28;20052;-66
2021/12/14 03:59:27;;;;;;;;;;;;;;;4.32;56.43;96349.72;5013771;28;19998;-67
2021/12/14 04:01:52;;;;;;;;;;;;;;;3.37;59.14;96346.31;5016498;28;19972;-67
2021/12/14 04:04:22;;;;;;;;;;;;;;;3.16;59.28;96346.94;5021728;28;19985;-67
2021/12/14 04:06:51;;;;;;;;;;;;;;;2.89;59.85;96350.63;5012483;28;19976;-67
2021/12/14 04:09:17;;;;;;;;;;;;;;;3.65;59.04;96360.91;5017536;28;20048;-67
2021/12/14 04:11:42;;;;;;;;;;;;;;;3.99;57.47;96375.94;5020599;28;20096;-67
2021/12/14 04:14:07;;;;;;;;;;;;;;;4.34;55.93;96363.63;5020879;28;19973;-67
2021/12/14 04:16:33;;;;;;;;;;;;;;;2.78;59.70;96343.53;5017389;28;20016;-67
2021/12/14 04:19:04;;;;;;;;;;;;;;;3.30;60.43;96338.88;5021146;28;20461;-67
2021/12/14 04:21:29;;;;;;;;;;;;;;;3.32;60.03;96358.97;5020709;28;19977;-66
2021/12/14 04:23:54;;;;;;;;;;;;;;;3.43;59.34;96349.31;5024551;28;20065;-67
2021/12/14 04:26:20;;;;;;;;;;;;;;;4.14;56.62;96339.66;5023588;28;20031;-67
2021/12/14 04:28:50;;;;;;;;;;;;;;;4.64;54.76;96329.66;5024882;28;20042;-66
2021/12/14 04:31:17;;;;;;;;;;;;;;;3.72;56.93;96334.09;5014978;28;20381;-67
2021/12/14 04:33:42;;;;;;;;;;;;;;;2.96;59.42;96332.63;5017565;28;20088;-66
2021/12/14 04:36:09;;;;;;;;;;;;;;;4.08;56.71;96337.47;5023495;28;20472;-66
2021/12/14 04:38:43;;;;;;;;;;;;;;;4.11;57.03;96342.53;5020963;28;20115;-66
2021/12/14 04:52:00;;;;;;;;;;;;;;;3.94;57.54;96336.78;5015405;28;20024;-66
2021/12/14 04:54:31;;;;;;;;;;;;;;;3.83;58.06;96331.50;5021135;28;19999;-66
2021/12/14 04:56:56;;;;;;;;;;;;;;;4.16;56.35;96356.19;5009743;28;20401;-66
2021/12/14 04:59:23;;;;;;;;;;;;;;;3.92;57.50;96351.03;5013939;28;20009;-67
2021/12/14 05:01:48;;;;;;;;;;;;;;;3.78;57.48;96362.63;5020945;28;20353;-67
2021/12/14 05:04:17;;;;;;;;;;;;;;;3.58;58.19;96350.94;5018565;28;20000;-66
2021/12/14 05:06:51;;;;;;;;;;;;;;;3.60;58.37;96352.50;5003406;28;20369;-66
2021/12/14 05:09:27;;;;;;;;;;;;;;;3.17;60.34;96351.28;5018679;28;19993;-66
2021/12/14 05:11:56;;;;;;;;;;;;;;;2.79;61.40;96371.50;5024257;28;19985;-66
2021/12/14 05:14:23;;;;;;;;;;;;;;;2.71;62.02;96365.97;5024021;28;20520;-66
2021/12/14 05:16:51;;;;;;;;;;;;;;;3.14;60.03;96367.28;5020466;28;20017;-66
2021/12/14 05:19:17;;;;;;;;;;;;;;;3.14;59.93;96378.63;5017326;28;20385;-66
2021/12/14 05:21:44;;;;;;;;;;;;;;;3.12;60.79;96374.44;5023860;28;19974;-66
2021/12/14 05:24:09;;;;;;;;;;;;;;;3.45;58.64;96377.34;5010233;28;19993;-66
2021/12/14 05:26:35;;;;;;;;;;;;;;;3.46;59.47;96365.88;5017456;28;20006;-67
2021/12/14 05:29:02;;;;;;;;;;;;;;;3.40;59.66;96369.75;5040620;28;20494;-66
2021/12/14 05:31:27;;;;;;;;;;;;;;;3.25;60.05;96382.28;5023444;28;19997;-66
2021/12/14 05:33:52;;;;;;;;;;;;;;;2.88;61.14;96398.94;5020080;28;19970;-66
2021/12/14 05:36:18;;;;;;;;;;;;;;;3.19;60.82;96385.38;5021758;28;19995;-66
2021/12/14 05:44:04;;;;;;;;;;;;;;;3.33;60.21;96369.38;5012190;28;20001;-67
2021/12/14 05:46:30;;;;;;;;;;;;;;;2.95;60.75;96359.88;5016712;28;19966;-67
2021/12/14 05:48:56;;;;;;;;;;;;;;;3.09;59.76;96366.78;5017522;28;20454;-66
2021/12/14 05:51:22;;;;;;;;;;;;;;;2.71;63.08;96371.22;5023103;28;19989;-66
2021/12/14 05:53:48;;;;;;;;;;;;;;;3.36;59.64;96386.75;5017825;28;20038;-67
2021/12/14 05:56:14;;;;;;;;;;;;;;;3.03;61.29;96381.22;5011617;28;20028;-68
2021/12/14 05:58:40;;;;;;;;;;;;;;;3.38;59.59;96384.84;5023223;28;20467;-67
2021/12/14 06:01:06;;;;;;;;;;;;;;;3.47;60.16;96392.06;5023132;28;19995;-67
2021/12/14 06:03:37;;;;;;;;;;;;;;;3.37;59.90;96393.69;5011453;28;20456;-67
2021/12/14 06:06:03;;;;;;;;;;;;;;;3.08;60.07;96392.25;5012873;28;19977;-67
2021/12/14 06:08:29;;;;;;;;;;;;;;;3.49;59.04;96391.97;5022599;28;19998;-67
2021/12/14 06:10:55;;;;;;;;;;;;;;;3.66;58.76;96396.81;5020071;28;19981;-67
2021/12/14 06:13:20;;;;;;;;;;;;;;;3.04;60.26;96382.91;5020547;28;20037;-67
2021/12/14 06:15:46;;;;;;;;;;;;;;;3.36;60.98;96392.00;5015307;28;20001;-67
2021/12/14 06:18:11;;;;;;;;;;;;;;;3.79;59.13;96401.16;5009582;28;20338;-67
2021/12/14 06:20:36;;;;;;;;;;;;;;;3.94;58.51;96391.25;5017703;28;20397;-65
2021/12/14 06:23:01;;;;;;;;;;;;;;;3.85;59.11;96384.06;5012467;28;20439;-64
2021/12/14 06:25:27;;;;;;;;;;;;;;;4.10;57.52;96390.94;5011213;28;20004;-65
2021/12/14 06:27:55;;;;;;;;;;;;;;;3.88;58.98;96387.28;5022004;28;20085;-65
2021/12/14 06:30:22;;;;;;;;;;;;;;;4.28;56.73;96393.94;5016578;28;20094;-65
2021/12/14 06:32:48;;;;;;;;;;;;;;;4.05;57.95;96393.91;5020583;28;20474;-66
2021/12/14 06:35:17;;;;;;;;;;;;;;;4.12;57.25;96394.25;5015655;28;19996;-66
2021/12/14 06:40:26;;;;;;;;;;;;;;;3.30;60.78;96399.41;5023905;28;20001;-66
2021/12/14 06:42:51;;;;;;;;;;;;;;;3.92;58.13;96387.91;5019541;28;20496;-66
2021/12/14 06:45:27;;;;;;;;;;;;;;;4.07;57.85;96394.66;5010539;28;20005;-65
2021/12/14 06:47:54;;;;;;;;;;;;;;;4.09;57.37;96388.41;5017372;28;20397;-65
2021/12/14 06:50:20;;;;;;;;;;;;;;;3.34;59.28;96389.50;5021700;28;20415;-66
2021/12/14 06:53:02;;;;;;;;;;;;;;;3.93;57.88;96392.22;5012439;28;20370;-66
2021/12/14 06:55:28;;;;;;;;;;;;;;;3.53;59.57;96388.16;5020853;28;20016;-66
2021/12/14 06:58:03;;;;;;;;;;;;;;;3.32;59.53;96385.28;5022282;28;19978;-65
2021/12/14 07:00:29;;;;;;;;;;;;;;;3.31;60.53;96381.84;5020425;28;20088;-66
2021/12/14 07:02:56;;;;;;;;;;;;;;;3.74;59.30;96379.63;5009580;28;20072;-66
2021/12/14 07:05:22;;;;;;;;;;;;;;;3.30;59.80;96378.34;5012153;28;20327;-66
2021/12/14 07:07:47;;;;;;;;;;;;;;;3.49;58.77;96382.28;5016284;28;20004;-65
2021/12/14 07:10:13;;;;;;;;;;;;;;;3.85;58.14;96377.00;5022469;28;19970;-65
2021/12/14 07:12:38;;;;;;;;;;;;;;;3.76;57.70;96370.63;5017184;28;20095;-66
2021/12/14 07:15:09;;;;;;;;;;;;;;;3.89;57.72;96377.59;5019917;28;19992;-65
2021/12/14 07:17:42;;;;;;;;;;;;;;;3.27;59.85;96377.75;5023936;28;20443;-66
2021/12/14 07:20:13;;;;;;;;;;;;;;;3.81;57.76;96378.16;5006689;28;20002;-65
2021/12/14 07:22:42;;;;;;;;;;;;;;;3.88;57.55;96376.75;5015487;28;19973;-66
2021/12/14 07:25:08;;;;;;;;;;;;;;;3.61;57.74;96382.31;5013313;28;20056;-66
2021/12/14 07:27:37;;;;;;;;;;;;;;;3.78;60.04;96389.78;5019796;28;20267;-66
2021/12/14 07:30:08;;;;;;;;;;;;;;;4.18;57.02;96390.31;5020423;28;20530;-66
2021/12/14 07:32:41;;;;;;;;;;;;;;;4.05;57.40;96398.34;5021573;28;19997;-66
2021/12/14 07:35:17;;;;;;;;;;;;;;;4.23;56.52;96398.72;5018772;28;19969;-66
2021/12/14 07:37:42;;;;;;;;;;;;;;;4.20;57.08;96404.22;5018717;28;19981;-66
2021/12/14 07:40:08;;;;;;;;;;;;;;;3.98;57.03;96399.78;5007623;28;20281;-65
2021/12/14 07:42:33;;;;;;;;;;;;;;;3.65;57.59;96403.06;5021880;28;20027;-66
2021/12/14 07:44:59;;;;;;;;;;;;;;;3.20;60.19;96414.19;5021558;28;20072;-65
2021/12/14 07:47:24;;;;;;;;;;;;;;;2.73;61.23;96421.94;5022715;28;20509;-66
2021/12/14 07:49:54;;;;;;;;;;;;;;;2.62;61.79;96425.31;5023977;28;19999;-66
2021/12/14 07:52:21;;;;;;;;;;;;;;;1.74;64.78;96427.75;5025385;28;20023;-65
2021/12/14 07:54:47;;;;;;;;;;;;;;;1.59;65.77;96419.09;5023018;28;20072;-65
2021/12/14 07:57:15;;;;;;;;;;;;;;;1.32;66.55;96426.03;5023751;28;20040;-65
2021/12/14 07:59:42;;;;;;;;;;;;;;;0.94;67.95;96432.78;5025009;28;20104;-65
2021/12/14 08:02:17;;;;;;;;;;;;;;;0.93;68.10;96444.22;5016931;28;20397;-66
2021/12/14 08:04:47;;;;;;;;;;;;;;;1.05;67.78;96454.84;5019569;28;19989;-65
2021/12/14 08:07:31;;;;;;;;;;;;;;;0.95;68.35;96457.22;5036754;28;20033;-65
2021/12/14 08:10:06;;;;;;;;;;;;;;;1.22;67.42;96467.75;5022730;28;20556;-66
2021/12/14 08:12:34;;;;;;;;;;;;;;;0.98;68.05;96472.78;5023208;28;19984;-65
2021/12/14 08:15:00;;;;;;;;;;;;;;;1.20;67.47;96469.63;5016442;28;19993;-66
2021/12/14 08:17:25;;;;;;;;;;;;;;;1.63;65.53;96465.19;5021363;28;20389;-65
2021/12/14 08:19:51;;;;;;;;;;;;;;;1.58;66.30;96456.78;5013289;28;19998;-65
2021/12/14 08:22:29;;;;;;;;;;;;;;;1.43;66.43;96455.97;5022328;28;19997;-66
2021/12/14 08:24:54;;;;;;;;;;;;;;;1.88;64.69;96458.34;5018239;28;20528;-66
2021/12/14 08:27:21;;;;;;;;;;;;;;;2.35;63.21;96453.41;5036541;28;20002;-66
2021/12/14 08:29:48;;;;;;;;;;;;;;;1.98;64.60;96463.81;5025200;28;19981;-66
2021/12/14 08:32:13;;;;;;;;;;;;;;;1.48;65.48;96459.13;5023518;28;20080;-66
2021/12/14 08:34:44;;;;;;;;;;;;;;;1.29;66.43;96472.63;5023576;28;20068;-66
2021/12/14 08:37:11;;;;;;;;;;;;;;;1.05;67.42;96470.59;5024644;28;20049;-66
2021/12/14 08:39:44;;;;;;;;;;;;;;;1.03;68.04;96480.34;5014779;28;20036;-65
2021/12/14 08:42:18;;;;;;;;;;;;;;;1.25;66.48;96477.19;5014375;28;20032;-65
2021/12/14 08:44:51;;;;;;;;;;;;;;;0.41;69.89;96490.22;5017979;28;20028;-66
2021/12/14 08:47:19;;;;;;;;;;;;;;;0.50;69.22;96491.44;5018614;28;19985;-66
2021/12/14 08:49:45;;;;;;;;;;;;;;;0.83;69.44;96493.78;5009701;28;19966;-66
2021/12/14 08:52:10;;;;;;;;;;;;;;;0.93;68.32;96493.19;5020307;28;20051;-65
2021/12/14 08:54:35;;;;;;;;;;;;;;;0.99;68.42;96495.44;5017536;28;19977;-65
2021/12/14 08:57:10;;;;;;;;;;;;;;;0.52;69.90;96493.03;5015559;28;20004;-65
2021/12/14 08:59:36;;;;;;;;;;;;;;;0.70;69.15;96488.47;5009879;28;20055;-65
2021/12/14 09:02:03;;;;;;;;;;;;;;;1.03;67.92;96483.84;5017601;28;19969;-65
2021/12/14 09:04:35;;;;;;;;;;;;;;;1.09;67.72;96486.06;5011876;28;20000;-66
2021/12/14 09:07:05;;;;;;;;;;;;;;;1.23;67.01;96494.84;5009675;28;19973;-66
2021/12/14 09:09:30;;;;;;;;;;;;;;;1.26;66.84;96491.19;5015319;28;20301;-66
2021/12/14 09:11:57;;;;;;;;;;;;;;;1.20;66.94;96498.47;5010117;28;20494;-66
2021/12/14 09:14:22;;;;;;;;;;;;;;;1.58;65.49;96507.50;5011573;28;20408;-66
2021/12/14 09:16:48;;;;;;;;;;;;;;;0.54;68.73;96506.88;5020827;28;19993;-66
2021/12/14 09:19:16;;;;;;;;;;;;;;;0.45;69.17;96502.22;5016543;28;20037;-66
2021/12/14 09:21:43;;;;;;;;;;;;;;;1.03;67.43;96509.19;5018160;28;20482;-68
2021/12/14 09:24:09;;;;;;;;;;;;;;;0.79;68.11;96512.41;5013381;28;20443;-66
2021/12/14 09:26:36;;;;;;;;;;;;;;;0.63;68.04;96515.13;5003740;28;19925;-66
2021/12/14 09:29:03;;;;;;;;;;;;;;;0.71;68.07;96512.88;5014094;28;19932;-66
2021/12/14 09:31:30;;;;;;;;;;;;;;;1.36;66.13;96515.88;5010864;28;20096;-66
2021/12/14 09:33:57;;;;;;;;;;;;;;;1.31;65.86;96510.09;5020048;28;19970;-66
2021/12/14 09:36:22;;;;;;;;;;;;;;;0.71;67.00;96499.75;5016499;28;20463;-66
2021/12/14 09:38:49;;;;;;;;;;;;;;;0.77;67.39;96501.16;5012305;28;20001;-66
2021/12/14 09:41:16;;;;;;;;;;;;;;;1.21;65.72;96501.94;5018122;28;19917;-68
2021/12/14 09:43:41;;;;;;;;;;;;;;;1.28;66.15;96500.63;5028703;28;20268;-64
2021/12/14 09:46:07;;;;;;;;;;;;;;;1.40;65.12;96506.84;5014064;28;20527;-65
2021/12/14 09:48:34;;;;;;;;;;;;;;;1.34;64.27;96496.78;5014422;28;19976;-65
2021/12/14 09:51:05;;;;;;;;;;;;;;;1.68;63.80;96499.03;5005992;28;19970;-65
2021/12/14 09:53:31;;;;;;;;;;;;;;;1.74;63.74;96496.84;5011038;28;20028;-64
2021/12/14 09:55:57;;;;;;;;;;;;;;;1.40;65.17;96506.03;5014098;28;20064;-64
2021/12/14 09:58:26;;;;;;;;;;;;;;;0.79;67.27;96502.75;5021076;28;19970;-64
2021/12/14 10:00:54;;;;;;;;;;;;;;;1.15;65.91;96502.31;5001222;28;20004;-64
2021/12/14 10:03:19;;;;;;;;;;;;;;;1.24;65.53;96509.63;5028754;28;20108;-65
2021/12/14 10:05:49;;;;;;;;;;;;;;;1.23;65.91;96507.97;5006549;28;19985;-65
2021/12/14 10:08:19;;;;;;;;;;;;;;;1.18;65.91;96508.25;5019458;28;20495;-65
2021/12/14 10:10:59;;;;;;;;;;;;;;;1.03;66.15;96503.97;5005901;28;20336;-65
2021/12/14 10:13:25;;;;;;;;;;;;;;;1.14;65.26;96503.28;5015677;28;20001;-64
2021/12/14 10:15:51;;;;;;;;;;;;;;;1.30;64.87;96501.34;5008900;28;20726;-64
2021/12/14 10:18:24;;;;;;;;;;;;;;;1.53;63.69;96501.69;5020454;28;20053;-65
2021/12/14 10:20:52;;;;;;;;;;;;;;;1.29;64.25;96502.31;5017323;28;20002;-65
2021/12/14 10:23:17;;;;;;;;;;;;;;;1.47;64.24;96500.28;5007716;28;19921;-65
2021/12/14 10:25:42;;;;;;;;;;;;;;;1.27;63.82;96491.09;5007168;28;19937;-64
2021/12/14 10:28:08;;;;;;;;;;;;;;;1.54;63.41;96498.16;5018260;28;19978;-64
2021/12/14 10:30:38;;;;;;;;;;;;;;;1.25;64.24;96503.44;5005213;28;20378;-66
2021/12/14 10:33:03;;;;;;;;;;;;;;;1.53;63.75;96503.47;5019595;28;20457;-65
2021/12/14 10:35:34;;;;;;;;;;;;;;;1.69;63.57;96500.69;5018401;28;20004;-64
2021/12/14 10:38:13;;;;;;;;;;;;;;;1.48;64.43;96512.47;5015564;28;19925;-65
2021/12/14 10:43:22;;;;;;;;;;;;;;;1.93;62.73;96494.78;5009509;28;20001;-64
2021/12/14 10:45:53;;;;;;;;;;;;;;;1.66;62.74;96501.75;5004898;28;20138;-64
2021/12/14 10:48:19;;;;;;;;;;;;;;;1.48;63.82;96503.75;5012108;28;20440;-65
2021/12/14 10:50:44;;;;;;;;;;;;;;;1.71;63.60;96504.09;5016954;28;19969;-64
2021/12/14 10:53:09;;;;;;;;;;;;;;;2.17;61.42;96494.09;5011996;28;19983;-66
2021/12/14 10:55:38;;;;;;;;;;;;;;;1.84;62.49;96491.81;5012564;28;19926;-66
2021/12/14 10:58:04;;;;;;;;;;;;;;;2.55;60.15;96488.00;5016826;28;20016;-66
2021/12/14 11:00:35;;;;;;;;;;;;;;;2.75;59.85;96480.50;5017889;28;19933;-66
2021/12/14 11:03:02;;;;;;;;;;;;;;;2.69;59.04;96494.91;5008679;28;19921;-67
2021/12/14 11:05:28;;;;;;;;;;;;;;;3.03;57.79;96487.28;5019983;28;19917;-65
2021/12/14 11:07:54;;;;;;;;;;;;;;;2.98;58.88;96485.94;5019030;28;19925;-64
2021/12/14 11:10:22;;;;;;;;;;;;;;;2.87;58.79;96491.97;5019909;28;19921;-65
2021/12/14 11:12:48;;;;;;;;;;;;;;;2.94;58.55;96502.88;5010335;28;20368;-65
2021/12/14 11:15:18;;;;;;;;;;;;;;;2.61;60.80;96502.50;4993385;28;19937;-64
2021/12/14 11:20:31;;;;;;;;;;;;;;;1.97;62.10;96515.50;5004507;28;20000;-64
2021/12/14 11:23:16;;;;;;;;;;;;;;;1.66;63.25;96512.25;4993215;28;19989;-65
2021/12/14 11:25:51;;;;;;;;;;;;;;;1.85;61.84;96501.41;4993922;28;19993;-65
2021/12/14 11:28:36;;;;;;;;;;;;;;;1.83;61.14;96491.91;5000676;28;20502;-65
2021/12/14 11:31:03;;;;;;;;;;;;;;;2.23;59.35;96481.38;5001385;28;19921;-65
2021/12/14 11:33:33;;;;;;;;;;;;;;;1.37;62.18;96481.66;4989640;28;19913;-62
2021/12/14 11:35:59;;;;;;;;;;;;;;;1.07;63.96;96480.06;4999407;28;20358;-64
2021/12/14 11:38:24;;;;;;;;;;;;;;;1.71;63.89;96483.06;4996945;28;19986;-64
2021/12/14 11:40:49;;;;;;;;;;;;;;;1.57;63.20;96487.44;4991842;28;20033;-64
2021/12/14 11:43:16;;;;;;;;;;;;;;;2.01;61.47;96484.63;4988545;28;20461;-65
2021/12/14 11:45:42;;;;;;;;;;;;;;;1.96;61.59;96486.69;4999791;28;19929;-65
2021/12/14 11:48:07;;;;;;;;;;;;;;;1.37;63.10;96484.28;4990565;28;20100;-65
2021/12/14 11:50:34;;;;;;;;;;;;;;;0.84;64.99;96484.13;4997911;28;20105;-65
2021/12/14 11:53:05;;;;;;;;;;;;;;;0.90;64.86;96482.91;5018519;28;20037;-64
2021/12/14 11:55:30;;;;;;;;;;;;;;;0.71;66.12;96495.38;5016817;28;20433;-64
2021/12/14 11:58:16;;;;;;;;;;;;;;;0.80;65.99;96486.09;5001121;28;20158;-65
2021/12/14 12:00:48;;;;;;;;;;;;;;;1.04;65.58;96489.91;4997072;28;20447;-64
2021/12/14 12:03:36;;;;;;;;;;;;;;;1.60;63.41;96479.34;5006294;28;19920;-64
2021/12/14 12:06:13;;;;;;;;;;;;;;;1.08;64.45;96483.53;5013596;28;19979;-64
2021/12/14 12:11:29;;;;;;;;;;;;;;;1.45;63.51;96472.44;4997835;28;20007;-65
2021/12/14 12:13:54;;;;;;;;;;;;;;;1.08;64.86;96476.50;5005952;28;19981;-64
2021/12/14 12:16:21;;;;;;;;;;;;;;;0.78;65.37;96474.03;5009765;28;20036;-64
2021/12/14 12:19:05;;;;;;;;;;;;;;;1.39;64.11;96480.75;5002706;28;19934;-64
2021/12/14 12:21:30;;;;;;;;;;;;;;;1.57;63.36;96468.22;5022749;28;19960;-64
2021/12/14 12:23:55;;;;;;;;;;;;;;;1.47;63.10;96467.97;5008245;28;19933;-64
2021/12/14 12:26:24;;;;;;;;;;;;;;;1.42;62.97;96468.25;5001193;28;20363;-64
2021/12/14 12:28:51;;;;;;;;;;;;;;;1.78;62.12;96460.72;4994086;28;20525;-64
2021/12/14 12:31:19;;;;;;;;;;;;;;;2.21;60.80;96469.28;4995673;28;20486;-64
2021/12/14 12:33:48;;;;;;;;;;;;;;;2.21;60.61;96469.28;5001251;28;19924;-65
2021/12/14 12:36:15;;;;;;;;;;;;;;;2.48;60.10;96468.31;5010488;28;19925;-64
2021/12/14 12:38:53;;;;;;;;;;;;;;;2.00;61.25;96467.16;5015617;28;19940;-64
2021/12/14 12:41:26;;;;;;;;;;;;;;;2.25;61.18;96468.13;4992453;28;20185;-64
2021/12/14 12:44:09;;;;;;;;;;;;;;;2.03;63.24;96468.72;5000559;28;20768;-64
2021/12/14 12:46:40;;;;;;;;;;;;;;;1.51;63.47;96472.06;5012214;28;19978;-65
2021/12/14 12:49:06;;;;;;;;;;;;;;;1.06;64.96;96478.38;5013838;28;19981;-65
2021/12/14 12:51:50;;;;;;;;;;;;;;;1.10;64.87;96473.78;5017523;28;20350;-65
2021/12/14 12:54:17;;;;;;;;;;;;;;;1.06;65.11;96483.63;4996804;28;19969;-66
2021/12/14 12:56:43;;;;;;;;;;;;;;;1.32;63.74;96468.00;5011739;28;20324;-66
2021/12/14 12:59:09;;;;;;;;;;;;;;;1.36;63.65;96476.50;5017559;28;19993;-64
2021/12/14 13:01:34;;;;;;;;;;;;;;;1.64;63.01;96471.28;4998747;28;20013;-64
2021/12/14 13:04:00;;;;;;;;;;;;;;;1.75;62.48;96479.31;5011467;28;19993;-65
2021/12/14 13:06:25;;;;;;;;;;;;;;;1.77;62.04;96480.03;5015156;28;20435;-64
2021/12/14 13:08:52;;;;;;;;;;;;;;;1.94;61.79;96476.28;5013427;28;20024;-64
2021/12/14 13:11:22;;;;;;;;;;;;;;;1.96;61.31;96471.78;5019879;28;20449;-65
2021/12/14 13:13:51;;;;;;;;;;;;;;;2.33;59.79;96473.72;5019646;28;19925;-64
2021/12/14 13:16:22;;;;;;;;;;;;;;;2.36;60.82;96470.88;5010581;28;19979;-64
2021/12/14 13:18:53;;;;;;;;;;;;;;;2.92;58.68;96468.78;4997712;28;19925;-66
2021/12/14 13:21:37;;;;;;;;;;;;;;;2.84;59.30;96473.75;5002347;28;19943;-64
2021/12/14 13:24:06;;;;;;;;;;;;;;;2.46;60.14;96473.72;4997476;28;20204;-65
2021/12/14 13:26:41;;;;;;;;;;;;;;;2.99;59.45;96482.38;5000517;28;20406;-65
2021/12/14 13:29:12;;;;;;;;;;;;;;;2.93;58.79;96478.41;4986380;28;20549;-64
2021/12/14 13:31:38;;;;;;;;;;;;;;;2.90;58.63;96483.88;4996685;28;19921;-65
2021/12/14 13:34:04;;;;;;;;;;;;;;;2.85;58.61;96489.44;5018687;28;20428;-65
2021/12/14 13:36:29;;;;;;;;;;;;;;;3.10;58.34;96481.59;5011005;28;20597;-64
2021/12/14 13:38:54;;;;;;;;;;;;;;;2.85;58.61;96489.44;5020300;28;19921;-65
2021/12/14 13:41:28;;;;;;;;;;;;;;;2.84;58.71;96492.16;5001699;28;19913;-65